Time;durP1;ratioP1;P1;durP2;ratioP2;P2;SDS_P1;SDS_P2;PMS_P1;PMS_P2;Temp;Humidity;BMP_temperature;BMP_pressure;BME280_temperature;BME280_humidity;BME280_pressure;Samples;Min_cycle;Max_cycle;Signal;HPM_P1;HPM_P2
2024/01/17 00:00:56;;;;;;;38.50;14.60;;;-7.00;99.90;;;;;;4445165;28;658102;-75
2024/01/17 00:03:44;;;;;;;82.27;23.10;;;-7.20;99.90;;;;;;4426108;28;657712;-74
2024/01/17 00:06:31;;;;;;;55.67;18.50;;;-7.30;99.90;;;;;;4453834;28;658167;-75
2024/01/17 00:09:18;;;;;;;71.90;21.10;;;-7.30;99.90;;;;;;4429894;28;657524;-75
2024/01/17 00:12:07;;;;;;;43.73;14.97;;;-7.30;99.90;;;;;;4464024;28;658110;-75
2024/01/17 00:14:55;;;;;;;65.33;18.30;;;-7.40;99.90;;;;;;4434280;28;658393;-74
2024/01/17 00:17:42;;;;;;;48.90;14.67;;;-7.50;99.90;;;;;;4453210;28;657669;-74
2024/01/17 00:20:29;;;;;;;62.80;18.47;;;-7.60;99.90;;;;;;4430112;28;657566;-74
2024/01/17 00:23:16;;;;;;;4.67;2.70;;;-7.90;99.90;;;;;;4455904;28;658388;-74
2024/01/17 00:26:03;;;;;;;36.20;13.57;;;-7.80;99.90;;;;;;4435271;28;656409;-74
2024/01/17 00:28:52;;;;;;;11.87;6.27;;;-7.90;99.90;;;;;;4454570;28;657716;-75
2024/01/17 00:31:39;;;;;;;46.43;12.77;;;-7.80;99.90;;;;;;4434174;28;657363;-74
2024/01/17 00:34:26;;;;;;;19.52;8.68;;;-8.00;99.90;;;;;;4454938;28;657304;-74
2024/01/17 00:37:14;;;;;;;38.20;13.60;;;-7.90;99.90;;;;;;4441101;28;656986;-74
2024/01/17 00:40:01;;;;;;;46.37;14.03;;;-7.80;99.90;;;;;;4450849;27;657959;-74
2024/01/17 00:42:48;;;;;;;34.10;12.80;;;-7.80;99.90;;;;;;4429990;28;657559;-74
2024/01/17 00:45:37;;;;;;;43.42;13.38;;;-7.80;99.90;;;;;;4457471;28;658609;-74
2024/01/17 00:48:24;;;;;;;37.87;13.27;;;-7.80;99.90;;;;;;4432874;28;657984;-75
2024/01/17 00:51:11;;;;;;;36.00;13.23;;;-7.90;99.90;;;;;;4455762;28;657294;-74
2024/01/17 00:53:58;;;;;;;40.90;14.00;;;-7.90;99.90;;;;;;4442710;28;658149;-74
2024/01/17 00:56:45;;;;;;;40.87;14.40;;;-7.80;99.90;;;;;;4462359;27;658003;-74
2024/01/17 00:59:32;;;;;;;33.17;10.13;;;-7.80;99.90;;;;;;4435489;28;657640;-74
2024/01/17 01:02:21;;;;;;;42.27;14.27;;;-7.80;99.90;;;;;;4455050;27;658018;-74
2024/01/17 01:05:09;;;;;;;35.10;14.30;;;-7.80;99.90;;;;;;4442134;28;657748;-73
2024/01/17 01:07:56;;;;;;;42.17;13.50;;;-7.80;99.90;;;;;;4454616;28;657505;-75
2024/01/17 01:10:43;;;;;;;38.83;13.20;;;-7.80;99.90;;;;;;4434672;28;657882;-73
2024/01/17 01:13:30;;;;;;;39.13;12.80;;;-8.00;99.90;;;;;;4455842;28;657920;-75
2024/01/17 01:16:18;;;;;;;39.03;13.30;;;-8.00;99.90;;;;;;4433785;28;658830;-74
2024/01/17 01:19:06;;;;;;;39.00;13.17;;;-8.00;99.90;;;;;;4460025;28;657519;-75
2024/01/17 01:21:53;;;;;;;38.80;13.35;;;-8.00;99.90;;;;;;4436748;27;657486;-74
2024/01/17 01:24:41;;;;;;;38.15;12.23;;;-8.10;99.90;;;;;;4460453;27;658566;-74
2024/01/17 01:27:28;;;;;;;33.13;12.23;;;-8.10;99.90;;;;;;4441607;28;657646;-74
2024/01/17 01:30:16;;;;;;;22.30;8.35;;;-8.00;99.90;;;;;;4462092;28;658459;-75
2024/01/17 01:33:04;;;;;;;37.83;12.53;;;-8.00;99.90;;;;;;4439813;27;656965;-74
2024/01/17 01:35:52;;;;;;;33.63;12.17;;;-8.10;99.90;;;;;;4456889;27;658044;-73
2024/01/17 01:38:39;;;;;;;26.13;10.00;;;-8.20;99.90;;;;;;4440588;28;658565;-74
2024/01/17 01:41:27;;;;;;;64.93;19.90;;;-8.30;99.90;;;;;;4456417;27;657772;-74
2024/01/17 01:44:14;;;;;;;64.67;20.93;;;-8.30;99.90;;;;;;4436308;27;657668;-74
2024/01/17 01:47:01;;;;;;;55.00;18.80;;;-8.40;99.90;;;;;;4434775;28;657631;-74
2024/01/17 01:49:48;;;;;;;49.90;19.93;;;-8.50;99.90;;;;;;4440164;27;657703;-74
2024/01/17 01:52:37;;;;;;;45.43;15.07;;;-8.50;99.90;;;;;;4457412;28;658343;-74
2024/01/17 01:55:24;;;;;;;44.70;14.57;;;-8.60;99.90;;;;;;4429405;28;658859;-74
2024/01/17 01:58:11;;;;;;;43.53;13.17;;;-8.50;99.90;;;;;;4452697;27;657347;-74
2024/01/17 02:00:59;;;;;;;41.00;12.23;;;-8.50;99.90;;;;;;4436442;28;657391;-74
2024/01/17 02:03:46;;;;;;;34.67;10.90;;;-8.60;99.90;;;;;;4453162;28;658266;-74
2024/01/17 02:06:35;;;;;;;38.95;10.80;;;-8.70;99.90;;;;;;4429931;28;658377;-74
2024/01/17 02:09:24;;;;;;;38.23;13.13;;;-8.60;99.90;;;;;;4451423;28;658063;-74
2024/01/17 02:12:11;;;;;;;35.87;13.27;;;-8.60;99.90;;;;;;4462615;28;657444;-74
2024/01/17 02:14:58;;;;;;;32.83;12.57;;;-8.80;99.90;;;;;;4433629;28;658079;-74
2024/01/17 02:17:45;;;;;;;40.20;15.03;;;-8.90;99.90;;;;;;4456839;27;658353;-75
2024/01/17 02:20:33;;;;;;;32.27;10.60;;;-8.90;99.90;;;;;;4435345;28;657453;-74
2024/01/17 02:23:24;;;;;;;39.57;13.13;;;-9.20;99.90;;;;;;4457138;28;658797;-74
2024/01/17 02:26:12;;;;;;;40.10;14.10;;;-9.10;99.90;;;;;;4438901;27;657909;-74
2024/01/17 02:28:59;;;;;;;34.57;12.60;;;-9.10;99.90;;;;;;4442575;28;658856;-74
2024/01/17 02:31:47;;;;;;;48.23;13.87;;;-9.10;99.90;;;;;;4460377;28;657794;-75
2024/01/17 02:34:34;;;;;;;32.23;11.60;;;-9.10;99.90;;;;;;4441126;28;657306;-74
2024/01/17 02:37:21;;;;;;;37.50;11.00;;;-8.90;99.90;;;;;;4456962;27;657214;-74
2024/01/17 02:40:09;;;;;;;35.90;11.97;;;-9.10;99.90;;;;;;4427508;27;657618;-74
2024/01/17 02:42:58;;;;;;;42.15;13.10;;;-9.10;99.90;;;;;;4451844;28;657514;-74
2024/01/17 02:45:45;;;;;;;42.27;13.57;;;-9.10;99.90;;;;;;4436187;27;658493;-74
2024/01/17 02:48:32;;;;;;;28.43;9.20;;;-9.30;99.90;;;;;;4443998;27;657491;-74
2024/01/17 02:51:20;;;;;;;28.87;9.83;;;-9.10;99.90;;;;;;4460240;27;657364;-74
2024/01/17 02:54:07;;;;;;;28.97;10.50;;;-9.40;99.90;;;;;;4458161;28;656563;-74
2024/01/17 02:56:55;;;;;;;28.47;11.10;;;-9.40;99.90;;;;;;4462855;27;657416;-74
2024/01/17 02:59:44;;;;;;;30.17;10.73;;;-9.30;99.90;;;;;;4441330;28;657909;-74
2024/01/17 03:02:31;;;;;;;28.87;10.73;;;-9.30;99.90;;;;;;4455095;27;657338;-74
2024/01/17 03:05:18;;;;;;;32.43;9.40;;;-9.10;99.90;;;;;;4427505;28;657287;-74
2024/01/17 03:08:06;;;;;;;23.38;8.23;;;-9.20;99.90;;;;;;4442576;27;656692;-74
2024/01/17 03:10:53;;;;;;;28.43;9.73;;;-9.60;99.90;;;;;;4435191;28;657076;-74
2024/01/17 03:13:40;;;;;;;26.53;10.17;;;-9.70;99.90;;;;;;4456316;28;657264;-74
2024/01/17 03:16:29;;;;;;;34.97;11.67;;;-9.50;99.90;;;;;;4436697;28;658095;-74
2024/01/17 03:19:16;;;;;;;31.53;11.37;;;-9.30;99.90;;;;;;4446675;28;657532;-74
2024/01/17 03:22:03;;;;;;;35.53;11.40;;;-9.20;99.90;;;;;;4424103;28;657274;-74
2024/01/17 03:24:51;;;;;;;20.57;8.27;;;-9.20;99.90;;;;;;4460234;28;657646;-74
2024/01/17 03:27:38;;;;;;;37.53;11.10;;;-9.10;99.90;;;;;;4431572;28;656594;-74
2024/01/17 03:30:25;;;;;;;27.93;9.50;;;-9.10;99.90;;;;;;4458767;28;658070;-74
2024/01/17 03:33:14;;;;;;;39.30;11.02;;;-9.10;99.90;;;;;;4430182;28;656362;-74
2024/01/17 03:36:01;;;;;;;9.13;4.33;;;-9.00;99.90;;;;;;4446939;28;657656;-74
2024/01/17 03:38:48;;;;;;;31.92;10.55;;;-9.00;99.90;;;;;;4435371;28;655797;-75
2024/01/17 03:41:36;;;;;;;33.03;10.67;;;-9.20;99.90;;;;;;4454854;28;658202;-74
2024/01/17 03:44:23;;;;;;;31.53;10.20;;;-9.30;99.90;;;;;;4433908;28;657290;-74
2024/01/17 03:47:10;;;;;;;32.87;10.60;;;-9.20;99.90;;;;;;4452322;28;658535;-74
2024/01/17 03:49:59;;;;;;;23.83;8.68;;;-9.30;99.90;;;;;;4432703;28;657813;-74
2024/01/17 03:52:46;;;;;;;30.40;8.90;;;-9.20;99.90;;;;;;4458837;28;656564;-74
2024/01/17 03:55:34;;;;;;;25.23;8.23;;;-9.20;99.90;;;;;;4438169;28;657177;-74
2024/01/17 03:58:21;;;;;;;25.40;8.87;;;-9.10;99.90;;;;;;4452040;28;656286;-74
2024/01/17 04:01:09;;;;;;;26.57;9.30;;;-9.00;99.90;;;;;;4440927;28;656765;-74
2024/01/17 04:03:56;;;;;;;27.73;8.53;;;-8.70;99.90;;;;;;4458932;28;656758;-74
2024/01/17 04:06:45;;;;;;;26.37;8.17;;;-8.70;99.90;;;;;;4437228;28;656466;-74
2024/01/17 04:09:32;;;;;;;25.60;9.23;;;-8.60;99.90;;;;;;4459050;28;657276;-74
2024/01/17 04:12:20;;;;;;;18.73;8.60;;;-8.50;99.90;;;;;;4433105;28;657706;-74
2024/01/17 04:15:08;;;;;;;21.67;7.80;;;-8.30;99.90;;;;;;4447984;28;656425;-74
2024/01/17 04:17:55;;;;;;;21.43;8.47;;;-8.20;99.90;;;;;;4464641;28;656779;-74
2024/01/17 04:20:43;;;;;;;8.00;3.28;;;-8.20;99.90;;;;;;4440850;28;656741;-74
2024/01/17 04:23:31;;;;;;;22.60;8.63;;;-7.90;99.90;;;;;;4461904;27;656155;-74
2024/01/17 04:26:23;;;;;;;25.07;7.93;;;-7.90;99.90;;;;;;4438769;28;657136;-74
2024/01/17 04:29:10;;;;;;;23.50;8.63;;;-7.90;99.90;;;;;;4443355;28;657153;-74
2024/01/17 04:31:58;;;;;;;20.67;8.60;;;-7.80;99.90;;;;;;4458978;28;656323;-75
2024/01/17 04:34:45;;;;;;;19.73;8.10;;;-7.90;99.90;;;;;;4461502;28;657284;-74
2024/01/17 04:37:32;;;;;;;21.93;8.47;;;-7.80;99.90;;;;;;4453307;27;656984;-74
2024/01/17 04:40:21;;;;;;;21.43;8.53;;;-7.70;99.90;;;;;;4459820;28;656681;-74
2024/01/17 04:43:09;;;;;;;21.70;8.03;;;-7.60;99.90;;;;;;4419235;28;656728;-74
2024/01/17 04:45:56;;;;;;;24.60;9.07;;;-7.50;99.90;;;;;;4459301;28;657191;-74
2024/01/17 04:48:43;;;;;;;17.30;7.10;;;-7.30;99.90;;;;;;4436484;28;656870;-75
2024/01/17 04:51:30;;;;;;;18.20;7.18;;;-7.20;99.90;;;;;;4462887;28;657388;-74
2024/01/17 04:54:18;;;;;;;17.43;6.07;;;-7.00;99.90;;;;;;4441470;28;656148;-74
2024/01/17 04:57:06;;;;;;;24.03;7.17;;;-6.90;99.90;;;;;;4468295;28;656537;-73
2024/01/17 04:59:53;;;;;;;21.67;7.60;;;-7.00;99.90;;;;;;4443495;27;656796;-74
2024/01/17 05:02:41;;;;;;;21.88;7.07;;;-7.00;99.90;;;;;;4457199;27;657888;-74
2024/01/17 05:05:28;;;;;;;21.80;7.60;;;-7.00;99.90;;;;;;4441876;28;656696;-74
2024/01/17 05:08:15;;;;;;;18.53;7.07;;;-7.00;99.90;;;;;;4447400;28;657469;-74
2024/01/17 05:11:02;;;;;;;24.90;7.33;;;-7.00;99.90;;;;;;4445276;28;656528;-75
2024/01/17 05:13:51;;;;;;;19.33;6.83;;;-7.00;99.90;;;;;;4467297;27;656644;-74
2024/01/17 05:16:38;;;;;;;22.00;8.63;;;-6.90;99.90;;;;;;4439996;27;657075;-74
2024/01/17 05:19:25;;;;;;;19.40;6.93;;;-6.90;99.90;;;;;;4467967;28;657718;-76
2024/01/17 05:22:14;;;;;;;19.13;6.40;;;-6.90;99.90;;;;;;4434236;27;656665;-76
2024/01/17 05:25:01;;;;;;;14.50;6.23;;;-6.90;99.90;;;;;;4465123;28;656176;-76
2024/01/17 05:27:51;;;;;;;31.93;8.20;;;-6.80;99.90;;;;;;4443142;28;656614;-76
2024/01/17 05:30:40;;;;;;;21.97;7.37;;;-6.70;99.90;;;;;;4433728;27;656188;-76
2024/01/17 05:33:27;;;;;;;25.20;9.70;;;-6.70;99.90;;;;;;4450946;28;656667;-76
2024/01/17 05:36:15;;;;;;;22.53;8.33;;;-6.80;99.90;;;;;;4448064;28;657865;-74
2024/01/17 05:39:03;;;;;;;25.83;9.63;;;-6.70;99.90;;;;;;4451787;27;656862;-74
2024/01/17 05:41:50;;;;;;;26.70;8.80;;;-6.70;99.90;;;;;;4461227;27;656884;-75
2024/01/17 05:44:37;;;;;;;23.67;9.07;;;-6.60;99.90;;;;;;4440999;28;656851;-75
2024/01/17 05:47:26;;;;;;;21.53;8.47;;;-6.60;99.90;;;;;;4452661;27;657012;-74
2024/01/17 05:50:13;;;;;;;31.73;10.75;;;-6.60;99.90;;;;;;4436942;27;656545;-74
2024/01/17 05:53:01;;;;;;;24.50;8.97;;;-6.50;99.90;;;;;;4458635;28;657211;-74
2024/01/17 05:55:48;;;;;;;21.47;8.53;;;-6.40;99.90;;;;;;4440282;27;656680;-74
2024/01/17 05:58:36;;;;;;;28.50;9.55;;;-6.50;99.90;;;;;;4454512;28;656694;-74
2024/01/17 06:01:23;;;;;;;15.83;7.57;;;-6.60;99.90;;;;;;4443083;28;657400;-75
2024/01/17 06:04:11;;;;;;;23.73;7.30;;;-6.70;99.90;;;;;;4461669;27;657226;-75
2024/01/17 06:06:59;;;;;;;18.57;6.80;;;-6.70;99.90;;;;;;4432019;27;657120;-74
2024/01/17 06:09:46;;;;;;;15.23;6.97;;;-6.70;99.90;;;;;;4452260;28;657281;-75
2024/01/17 06:12:33;;;;;;;25.40;7.93;;;-6.70;99.90;;;;;;4436387;28;656918;-75
2024/01/17 06:15:20;;;;;;;19.20;8.03;;;-6.70;99.90;;;;;;4463761;27;657543;-74
2024/01/17 06:18:07;;;;;;;15.07;7.33;;;-6.70;99.90;;;;;;4444865;27;656569;-74
2024/01/17 06:20:56;;;;;;;21.13;8.33;;;-6.80;99.90;;;;;;4464324;28;656297;-75
2024/01/17 06:23:44;;;;;;;23.57;7.70;;;-6.80;99.90;;;;;;4432160;28;656843;-74
2024/01/17 06:26:31;;;;;;;24.67;8.10;;;-6.70;99.90;;;;;;4447590;28;657027;-74
2024/01/17 06:29:18;;;;;;;14.00;5.40;;;-6.70;99.90;;;;;;4430449;28;657056;-74
2024/01/17 06:32:06;;;;;;;17.65;7.18;;;-6.60;99.90;;;;;;4447253;28;656927;-74
2024/01/17 06:34:53;;;;;;;20.80;7.50;;;-6.40;99.90;;;;;;4427781;27;656562;-74
2024/01/17 06:37:42;;;;;;;45.58;13.80;;;-6.50;99.90;;;;;;4463472;28;657624;-74
2024/01/17 06:40:29;;;;;;;56.37;15.37;;;-6.40;99.90;;;;;;4430769;28;658640;-74
2024/01/17 06:43:16;;;;;;;35.73;12.03;;;-6.60;99.90;;;;;;4450864;28;657354;-74
2024/01/17 06:46:04;;;;;;;30.80;10.23;;;-6.60;99.90;;;;;;4436237;27;657820;-74
2024/01/17 06:48:51;;;;;;;35.67;12.13;;;-6.50;99.90;;;;;;4458214;27;657164;-74
2024/01/17 06:51:39;;;;;;;35.17;11.43;;;-6.50;99.90;;;;;;4429796;28;657302;-74
2024/01/17 06:54:27;;;;;;;28.43;10.67;;;-6.30;99.90;;;;;;4454894;28;658174;-75
2024/01/17 06:57:15;;;;;;;45.07;13.97;;;-6.40;99.90;;;;;;4440122;28;657899;-75
2024/01/17 07:00:04;;;;;;;38.93;12.63;;;-6.30;99.90;;;;;;4452470;28;657407;-75
2024/01/17 07:02:51;;;;;;;33.03;12.10;;;-6.20;99.90;;;;;;4453435;28;657237;-75
2024/01/17 07:05:38;;;;;;;41.57;14.17;;;-6.20;99.90;;;;;;4436908;28;658029;-74
2024/01/17 07:08:25;;;;;;;39.47;12.70;;;-6.10;99.90;;;;;;4454152;27;658572;-74
2024/01/17 07:11:14;;;;;;;47.72;13.27;;;-6.00;99.90;;;;;;4434200;28;657740;-75
2024/01/17 07:14:01;;;;;;;33.00;8.70;;;-6.00;99.90;;;;;;4459053;28;657527;-75
2024/01/17 07:16:48;;;;;;;17.90;6.03;;;-6.00;99.90;;;;;;4441497;28;656321;-74
2024/01/17 07:19:37;;;;;;;41.37;13.27;;;-5.80;99.90;;;;;;4459827;28;656893;-75
2024/01/17 07:22:24;;;;;;;43.67;15.10;;;-5.60;99.90;;;;;;4425901;28;657613;-74
2024/01/17 07:25:12;;;;;;;39.43;13.87;;;-5.60;99.90;;;;;;4451634;28;657428;-75
2024/01/17 07:28:01;;;;;;;35.90;13.07;;;-5.50;99.90;;;;;;4423250;28;657917;-74
2024/01/17 07:30:48;;;;;;;36.73;12.33;;;-5.50;99.90;;;;;;4432838;28;657956;-74
2024/01/17 07:33:35;;;;;;;30.37;11.40;;;-5.30;99.90;;;;;;4454441;28;658161;-74
2024/01/17 07:36:23;;;;;;;18.83;5.13;;;-5.20;99.90;;;;;;4442691;28;657361;-74
2024/01/17 07:39:14;;;;;;;28.83;10.67;;;-5.20;99.90;;;;;;4460456;28;656317;-73
2024/01/17 07:42:03;;;;;;;20.03;6.07;;;-5.10;99.90;;;;;;4422164;28;657565;-74
2024/01/17 07:44:51;;;;;;;30.77;10.90;;;-5.00;99.90;;;;;;4438278;28;656776;-74
2024/01/17 07:47:39;;;;;;;27.35;10.63;;;-5.00;99.90;;;;;;4431586;28;657624;-75
2024/01/17 07:50:26;;;;;;;24.10;9.27;;;-4.90;99.90;;;;;;4451550;28;657958;-74
2024/01/17 07:53:13;;;;;;;23.53;8.80;;;-4.70;99.90;;;;;;4428420;27;657294;-74
2024/01/17 07:56:01;;;;;;;25.92;8.50;;;-4.60;99.90;;;;;;4455791;28;657223;-74
2024/01/17 07:58:48;;;;;;;21.90;8.83;;;-4.50;99.90;;;;;;4432591;28;657065;-74
2024/01/17 08:01:37;;;;;;;19.73;7.70;;;-4.50;99.90;;;;;;4447255;28;657075;-74
2024/01/17 08:04:24;;;;;;;23.37;8.63;;;-4.30;99.90;;;;;;4435463;28;657347;-74
2024/01/17 08:07:12;;;;;;;21.90;7.90;;;-4.20;99.90;;;;;;4455457;28;656638;-74
2024/01/17 08:09:59;;;;;;;23.63;9.40;;;-4.10;99.90;;;;;;4424878;28;656884;-74
2024/01/17 08:12:46;;;;;;;45.37;15.00;;;-3.90;99.90;;;;;;4451019;28;656163;-74
2024/01/17 08:15:33;;;;;;;3.90;1.80;;;-3.80;99.90;;;;;;4433891;28;658272;-74
2024/01/17 08:18:23;;;;;;;20.20;6.87;;;-3.70;99.90;;;;;;4458814;28;655533;-74
2024/01/17 08:21:10;;;;;;;17.80;6.53;;;-3.60;99.90;;;;;;4437609;28;657400;-74
2024/01/17 08:23:59;;;;;;;20.57;6.90;;;-3.60;99.90;;;;;;4448929;28;656960;-74
2024/01/17 08:26:47;;;;;;;21.53;8.17;;;-3.50;99.90;;;;;;4463323;28;657387;-75
2024/01/17 08:29:34;;;;;;;22.43;8.50;;;-3.30;99.90;;;;;;4431058;28;657791;-74
2024/01/17 08:32:22;;;;;;;22.80;9.33;;;-3.10;99.90;;;;;;4455306;28;656858;-74
2024/01/17 08:35:11;;;;;;;22.57;7.70;;;-2.90;99.90;;;;;;4432619;28;656817;-74
2024/01/17 08:37:59;;;;;;;25.53;8.97;;;-2.50;99.90;;;;;;4436199;28;656553;-74
2024/01/17 08:40:46;;;;;;;19.67;8.83;;;-1.90;99.90;;;;;;4455151;28;657069;-75
2024/01/17 08:43:33;;;;;;;25.57;9.27;;;-1.30;99.90;;;;;;4424900;28;656841;-74
2024/01/17 08:46:21;;;;;;;24.47;9.87;;;-0.50;99.90;;;;;;4449575;28;656587;-74
2024/01/17 08:49:08;;;;;;;23.97;9.27;;;0.00;99.90;;;;;;4430025;28;657073;-75
2024/01/17 08:51:56;;;;;;;17.83;8.20;;;0.30;99.90;;;;;;4447673;28;656377;-75
2024/01/17 08:54:44;;;;;;;33.30;14.43;;;0.20;99.90;;;;;;4430764;28;656144;-75
2024/01/17 08:57:31;;;;;;;24.47;8.53;;;0.30;99.90;;;;;;4450668;28;656675;-75
2024/01/17 09:00:19;;;;;;;18.33;8.20;;;0.30;99.90;;;;;;4429071;28;655381;-74
2024/01/17 09:03:08;;;;;;;20.20;8.53;;;0.30;99.90;;;;;;4460605;28;655300;-74
2024/01/17 09:05:55;;;;;;;17.73;7.17;;;0.70;99.90;;;;;;4433919;28;656412;-75
2024/01/17 09:08:44;;;;;;;25.63;9.83;;;0.40;99.90;;;;;;4453187;28;655563;-75
2024/01/17 09:11:32;;;;;;;16.47;6.63;;;1.00;99.90;;;;;;4462332;28;655786;-75
2024/01/17 09:14:21;;;;;;;19.23;8.13;;;1.10;99.90;;;;;;4441140;27;655505;-74
2024/01/17 09:17:08;;;;;;;19.63;8.03;;;1.20;99.90;;;;;;4438849;27;655659;-75
2024/01/17 09:19:55;;;;;;;20.27;8.23;;;2.30;99.90;;;;;;4454711;27;656232;-74
2024/01/17 09:22:42;;;;;;;23.63;8.87;;;2.20;97.70;;;;;;4435197;27;655802;-73
2024/01/17 09:25:31;;;;;;;22.77;8.70;;;2.30;99.90;;;;;;4456230;28;656251;-74
2024/01/17 09:28:18;;;;;;;19.40;8.30;;;2.60;99.90;;;;;;4436416;27;655649;-74
2024/01/17 09:31:05;;;;;;;19.43;7.33;;;2.70;99.90;;;;;;4461982;27;655848;-74
2024/01/17 09:33:53;;;;;;;12.87;6.57;;;3.00;97.90;;;;;;4437613;27;655462;-74
2024/01/17 09:36:40;;;;;;;16.73;6.50;;;3.20;99.90;;;;;;4452488;27;656714;-74
2024/01/17 09:39:29;;;;;;;19.30;8.17;;;3.70;72.80;;;;;;4454081;28;656073;-74
2024/01/17 09:42:17;;;;;;;15.37;6.33;;;4.00;71.60;;;;;;4457381;28;655764;-74
2024/01/17 09:45:06;;;;;;;13.23;5.50;;;3.80;69.20;;;;;;4427295;28;656852;-74
2024/01/17 09:47:53;;;;;;;17.37;7.20;;;4.40;65.90;;;;;;4435728;28;655374;-74
2024/01/17 09:50:40;;;;;;;26.00;8.47;;;3.70;61.40;;;;;;4463968;28;655974;-74
2024/01/17 09:53:29;;;;;;;19.80;7.50;;;3.70;68.70;;;;;;4432799;28;655948;-74
2024/01/17 09:56:16;;;;;;;16.30;7.50;;;4.20;66.40;;;;;;4456974;28;655653;-74
2024/01/17 09:59:07;;;;;;;19.37;7.70;;;4.60;62.80;;;;;;4435062;28;656133;-74
2024/01/17 10:01:54;;;;;;;24.33;8.43;;;4.70;57.80;;;;;;4441375;27;656841;-74
2024/01/17 10:04:42;;;;;;;18.37;6.97;;;5.00;57.90;;;;;;4458139;27;655883;-74
2024/01/17 10:07:29;;;;;;;20.13;7.70;;;4.50;63.50;;;;;;4425665;28;656340;-74
2024/01/17 10:10:19;;;;;;;21.10;7.63;;;5.20;62.20;;;;;;4452518;28;654805;-74
2024/01/17 10:13:06;;;;;;;31.63;9.13;;;5.40;57.50;;;;;;4436904;28;655571;-74
2024/01/17 10:15:55;;;;;;;36.33;11.40;;;6.10;55.80;;;;;;4439003;28;655610;-74
2024/01/17 10:18:42;;;;;;;50.20;12.67;;;4.60;54.90;;;;;;4437058;28;656583;-74
2024/01/17 10:21:32;;;;;;;35.60;11.53;;;4.70;57.90;;;;;;4450202;28;658601;-74
2024/01/17 10:24:20;;;;;;;33.97;10.95;;;5.60;58.60;;;;;;4436034;27;658763;-74
2024/01/17 10:27:08;;;;;;;27.77;9.00;;;5.60;56.00;;;;;;4455610;28;657539;-74
2024/01/17 10:29:55;;;;;;;19.00;8.10;;;5.20;56.60;;;;;;4460632;28;657224;-74
2024/01/17 10:32:44;;;;;;;19.67;8.27;;;5.50;54.10;;;;;;4447810;28;656759;-74
2024/01/17 10:35:31;;;;;;;25.07;9.37;;;6.20;53.80;;;;;;4456032;28;656070;-73
2024/01/17 10:38:18;;;;;;;20.47;8.30;;;6.10;53.30;;;;;;4434673;28;656489;-74
2024/01/17 10:41:06;;;;;;;25.60;9.88;;;5.90;53.10;;;;;;4462191;28;656917;-74
2024/01/17 10:43:54;;;;;;;19.50;8.17;;;6.00;53.70;;;;;;4433685;28;656666;-74
2024/01/17 10:46:41;;;;;;;19.50;7.30;;;6.00;52.80;;;;;;4459891;27;655737;-73
2024/01/17 10:49:30;;;;;;;18.40;7.80;;;5.20;53.70;;;;;;4437844;28;656754;-74
2024/01/17 10:52:18;;;;;;;26.90;10.10;;;4.90;54.60;;;;;;4437175;27;657147;-74
2024/01/17 10:55:05;;;;;;;19.47;8.27;;;4.40;56.30;;;;;;4455173;28;658673;-74
2024/01/17 10:57:53;;;;;;;21.03;7.80;;;4.40;58.10;;;;;;4439626;28;656595;-74
2024/01/17 11:00:41;;;;;;;16.20;7.37;;;4.70;58.30;;;;;;4460623;28;658262;-73
2024/01/17 11:03:29;;;;;;;16.93;8.03;;;5.30;56.40;;;;;;4436964;28;656864;-74
2024/01/17 11:06:17;;;;;;;17.00;7.57;;;5.50;55.90;;;;;;4464680;28;656523;-74
2024/01/17 11:09:06;;;;;;;22.33;8.40;;;5.40;55.10;;;;;;4438996;28;656987;-73
2024/01/17 11:11:53;;;;;;;19.07;8.67;;;4.50;55.70;;;;;;4436584;28;656805;-74
2024/01/17 11:14:40;;;;;;;18.10;8.00;;;4.00;58.50;;;;;;4457199;28;656544;-74
2024/01/17 11:17:29;;;;;;;19.33;6.90;;;3.80;61.70;;;;;;4425954;28;656336;-74
2024/01/17 11:20:17;;;;;;;19.67;8.00;;;3.50;70.40;;;;;;4458145;28;656462;-74
2024/01/17 11:23:06;;;;;;;15.93;7.07;;;3.80;64.00;;;;;;4436427;27;656898;-74
2024/01/17 11:25:56;;;;;;;15.60;6.70;;;4.00;64.60;;;;;;4441275;28;657911;-74
2024/01/17 11:28:47;;;;;;;18.03;7.87;;;3.70;59.20;;;;;;4438986;28;656815;-74
2024/01/17 11:31:40;;;;;;;24.52;9.25;;;3.10;86.40;;;;;;4441314;28;657098;-74
2024/01/17 11:34:27;;;;;;;25.30;9.47;;;3.00;92.10;;;;;;4452100;28;656577;-74
2024/01/17 11:37:28;;;;;;;23.52;8.50;;;3.10;93.90;;;;;;4445757;28;656312;-74
2024/01/17 11:40:17;;;;;;;25.97;9.90;;;3.20;77.20;;;;;;4436214;28;656665;-74
2024/01/17 11:43:04;;;;;;;24.83;10.43;;;2.90;94.50;;;;;;4439617;28;657317;-73
2024/01/17 11:45:53;;;;;;;22.97;9.03;;;2.70;97.70;;;;;;4426228;27;657721;-73
2024/01/17 11:48:41;;;;;;;27.20;9.20;;;2.40;99.90;;;;;;4461957;28;657549;-74
2024/01/17 11:51:28;;;;;;;19.40;8.23;;;2.30;99.90;;;;;;4440497;28;656393;-74
2024/01/17 11:54:15;;;;;;;22.90;9.10;;;2.20;99.90;;;;;;4448693;28;657200;-75
2024/01/17 11:57:08;;;;;;;25.97;9.93;;;2.10;99.90;;;;;;4450233;28;656752;-74
2024/01/17 12:00:07;;;;;;;22.50;8.57;;;1.80;99.90;;;;;;4442188;28;657042;-74
2024/01/17 12:02:59;;;;;;;26.57;9.00;;;1.80;99.90;;;;;;4398678;28;656598;-74
2024/01/17 12:05:46;;;;;;;20.73;9.13;;;1.70;99.90;;;;;;4424395;28;656830;-74
2024/01/17 12:08:33;;;;;;;22.20;9.00;;;2.10;99.90;;;;;;4437714;28;656929;-74
2024/01/17 12:11:22;;;;;;;17.30;7.43;;;2.50;99.90;;;;;;4456156;28;657332;-74
2024/01/17 12:14:11;;;;;;;20.48;7.85;;;2.60;98.70;;;;;;4432109;28;656490;-73
2024/01/17 12:16:58;;;;;;;21.37;6.90;;;2.40;85.80;;;;;;4429941;28;656700;-74
2024/01/17 12:19:46;;;;;;;27.90;9.13;;;2.30;93.00;;;;;;4450056;28;657504;-74
2024/01/17 12:22:33;;;;;;;17.60;7.97;;;2.50;97.80;;;;;;4428198;28;656923;-73
2024/01/17 12:25:20;;;;;;;24.13;8.90;;;2.60;80.40;;;;;;4456218;28;657696;-74
2024/01/17 12:28:09;;;;;;;19.10;7.30;;;2.50;94.80;;;;;;4432098;28;656499;-73
2024/01/17 12:31:02;;;;;;;19.43;8.23;;;2.70;79.80;;;;;;4454461;28;657392;-73
2024/01/17 12:33:49;;;;;;;16.30;7.07;;;2.30;91.70;;;;;;4439665;28;656584;-74
2024/01/17 12:36:37;;;;;;;21.03;9.03;;;2.40;89.60;;;;;;4461012;28;656731;-74
2024/01/17 12:39:24;;;;;;;19.17;8.63;;;2.80;93.20;;;;;;4441404;28;656744;-74
2024/01/17 12:42:11;;;;;;;22.73;9.57;;;3.30;74.40;;;;;;4458726;27;656084;-74
2024/01/17 12:44:58;;;;;;;20.57;8.60;;;4.00;80.00;;;;;;4437139;27;657202;-73
2024/01/17 12:47:47;;;;;;;16.63;6.83;;;4.10;64.80;;;;;;4452581;28;656900;-73
2024/01/17 12:50:34;;;;;;;21.97;8.93;;;3.60;66.20;;;;;;4437492;27;656933;-73
2024/01/17 12:53:23;;;;;;;22.57;8.63;;;3.80;72.60;;;;;;4449841;28;656796;-73
2024/01/17 12:56:11;;;;;;;26.93;9.70;;;3.80;63.80;;;;;;4438273;27;656343;-73
2024/01/17 12:58:59;;;;;;;25.50;10.03;;;4.60;68.70;;;;;;4438455;27;656592;-74
2024/01/17 13:01:46;;;;;;;22.90;9.00;;;5.30;59.70;;;;;;4460975;28;657959;-73
2024/01/17 13:04:34;;;;;;;23.57;9.90;;;5.60;58.60;;;;;;4442001;28;656434;-73
2024/01/17 13:07:25;;;;;;;20.23;10.02;;;4.90;58.40;;;;;;4455886;27;656121;-73
2024/01/17 13:10:17;;;;;;;25.77;9.70;;;4.00;61.70;;;;;;4414125;27;658409;-73
2024/01/17 13:13:05;;;;;;;23.47;9.17;;;3.90;62.30;;;;;;4440014;28;657144;-73
2024/01/17 13:15:54;;;;;;;26.87;11.00;;;3.80;69.50;;;;;;4464186;27;655611;-73
2024/01/17 13:18:42;;;;;;;20.43;9.33;;;3.40;68.90;;;;;;4434452;27;658128;-73
2024/01/17 13:21:30;;;;;;;20.93;9.33;;;3.00;81.30;;;;;;4428156;28;657966;-73
2024/01/17 13:24:18;;;;;;;28.97;10.03;;;2.80;99.90;;;;;;4435761;28;657131;-73
2024/01/17 13:27:05;;;;;;;24.27;9.70;;;2.50;92.20;;;;;;4453445;27;658183;-73
2024/01/17 13:29:52;;;;;;;28.15;9.48;;;2.80;99.60;;;;;;4436997;28;657341;-73
2024/01/17 13:32:40;;;;;;;22.33;9.70;;;2.80;98.00;;;;;;4448093;28;657361;-73
2024/01/17 13:35:27;;;;;;;20.50;7.80;;;2.50;83.30;;;;;;4456577;27;657808;-74
2024/01/17 13:38:16;;;;;;;25.97;9.43;;;2.00;95.10;;;;;;4462622;28;656751;-74
2024/01/17 13:41:03;;;;;;;16.70;7.20;;;2.20;99.90;;;;;;4429755;27;657014;-73
2024/01/17 13:43:53;;;;;;;26.03;10.40;;;2.00;99.90;;;;;;4449599;28;656664;-73
2024/01/17 13:46:40;;;;;;;23.80;9.00;;;2.10;99.90;;;;;;4439779;28;658076;-73
2024/01/17 13:49:27;;;;;;;28.83;10.85;;;2.30;99.90;;;;;;4436986;28;656539;-73
2024/01/17 13:52:20;;;;;;;28.13;10.57;;;2.10;99.90;;;;;;4457965;28;657901;-73
2024/01/17 13:55:09;;;;;;;24.37;10.30;;;2.20;99.90;;;;;;4410484;27;657947;-73
2024/01/17 13:57:56;;;;;;;34.80;11.60;;;2.30;99.90;;;;;;4461192;28;658090;-73
2024/01/17 14:00:44;;;;;;;35.80;11.93;;;2.10;99.90;;;;;;4433868;28;657940;-73
2024/01/17 14:03:31;;;;;;;28.70;10.67;;;2.00;99.90;;;;;;4455533;27;658453;-73
2024/01/17 14:06:18;;;;;;;31.63;11.57;;;1.80;99.90;;;;;;4443223;28;657705;-73
2024/01/17 14:09:07;;;;;;;32.03;13.50;;;1.70;99.90;;;;;;4454582;27;657962;-73
2024/01/17 14:11:55;;;;;;;32.20;12.17;;;1.40;99.90;;;;;;4425500;28;658366;-73